createdAt,value
2023-01-21T00:01:20.273Z,98279.47
2023-01-21T00:03:47.775Z,98277.41
2023-01-21T00:06:15.579Z,98283.31
2023-01-21T00:08:43.171Z,98283.75
2023-01-21T00:11:14.755Z,98289.63
2023-01-21T00:13:44.199Z,98287.72
2023-01-21T00:16:12.603Z,98293.34
2023-01-21T00:18:40.325Z,98296.50
2023-01-21T00:21:07.919Z,98285.78
2023-01-21T00:23:35.463Z,98281.78
2023-01-21T00:26:05.346Z,98282.19
2023-01-21T00:28:35.735Z,98284.53
2023-01-21T00:31:06.386Z,98276.84
2023-01-21T00:33:34.552Z,98281.38
2023-01-21T00:36:03.666Z,98283.00
2023-01-21T00:38:32.023Z,98286.31
2023-01-21T00:41:11.009Z,98281.38
2023-01-21T00:43:39.578Z,98293.16
2023-01-21T00:46:07.473Z,98295.09
2023-01-21T00:48:35.635Z,98301.56
2023-01-21T00:51:03.792Z,98292.78
2023-01-21T00:53:33.815Z,98295.66
2023-01-21T00:56:03.263Z,98304.16
2023-01-21T00:58:31.535Z,98300.06
2023-01-21T01:01:11.036Z,98299.22
2023-01-21T01:03:39.785Z,98294.78
2023-01-21T01:06:19.574Z,98292.09
2023-01-21T01:08:47.838Z,98297.47
2023-01-21T01:11:16.243Z,98291.53
2023-01-21T01:13:44.205Z,98287.28
2023-01-21T01:16:14.899Z,98291.91
2023-01-21T01:18:43.073Z,98298.38
2023-01-21T01:21:16.164Z,98308.09
2023-01-21T01:23:44.313Z,98305.38
2023-01-21T01:26:15.017Z,98314.25
2023-01-21T01:28:43.085Z,98315.63
2023-01-21T01:31:13.696Z,98313.16
2023-01-21T01:33:41.543Z,98318.66
2023-01-21T01:36:14.065Z,98317.38
2023-01-21T01:38:41.975Z,98310.38
2023-01-21T01:41:15.760Z,98313.78
2023-01-21T01:44:25.633Z,98320.53
2023-01-21T01:46:58.703Z,98321.91
2023-01-21T01:49:26.190Z,98323.91
2023-01-21T01:51:59.170Z,98330.91
2023-01-21T01:54:41.914Z,98341.47
2023-01-21T01:57:12.836Z,98340.91
2023-01-21T01:59:41.325Z,98337.53
2023-01-21T02:02:16.700Z,98344.34
2023-01-21T02:04:54.390Z,98345.16
2023-01-21T02:07:24.929Z,98348.59
2023-01-21T02:09:53.809Z,98352.03
2023-01-21T02:12:22.503Z,98350.69
2023-01-21T02:14:50.548Z,98347.69
2023-01-21T02:17:20.787Z,98349.22
2023-01-21T02:19:48.169Z,98357.88
2023-01-21T02:22:28.128Z,98363.09
2023-01-21T02:25:32.823Z,98362.19
2023-01-21T02:28:18.860Z,98356.41
2023-01-21T02:31:24.621Z,98363.38
2023-01-21T02:34:10.566Z,98358.94
2023-01-21T02:36:54.734Z,98363.88
2023-01-21T02:39:48.708Z,98366.59
2023-01-21T02:42:46.627Z,98363.63
2023-01-21T02:45:46.773Z,98368.03
2023-01-21T02:48:19.633Z,98370.31
2023-01-21T02:50:50.812Z,98369.72
2023-01-21T02:53:27.433Z,98372.03
2023-01-21T02:55:57.657Z,98376.56
2023-01-21T02:58:29.312Z,98369.88
2023-01-21T03:01:12.372Z,98375.09
2023-01-21T03:03:46.489Z,98379.34
2023-01-21T03:07:04.396Z,98380.56
2023-01-21T03:09:33.926Z,98379.59
2023-01-21T03:12:25.792Z,98382.09
2023-01-21T03:15:29.934Z,98381.50
2023-01-21T03:18:08.980Z,98387.25
2023-01-21T03:21:02.608Z,98390.28
2023-01-21T03:23:35.818Z,98393.38
2023-01-21T03:26:05.480Z,98394.81
2023-01-21T03:28:38.724Z,98396.69
2023-01-21T03:31:13.051Z,98404.31
2023-01-21T03:33:46.795Z,98414.56
2023-01-21T03:36:26.670Z,98404.81
2023-01-21T03:38:57.887Z,98400.56
2023-01-21T03:41:33.659Z,98405.53
2023-01-21T03:44:01.350Z,98403.50
2023-01-21T03:46:44.105Z,98405.53
2023-01-21T03:49:19.292Z,98403.63
2023-01-21T03:51:52.839Z,98401.72
2023-01-21T03:54:20.234Z,98406.34
2023-01-21T03:56:47.532Z,98405.53
2023-01-21T03:59:15.124Z,98405.13
2023-01-21T04:01:42.690Z,98404.00
2023-01-21T04:04:10.363Z,98405.59
2023-01-21T04:06:37.762Z,98401.44
2023-01-21T04:09:06.782Z,98407.31
2023-01-21T04:11:34.736Z,98410.59
2023-01-21T04:14:02.581Z,98405.03
2023-01-21T04:16:30.804Z,98402.88
2023-01-21T04:18:58.394Z,98406.31
2023-01-21T04:21:25.845Z,98404.34
2023-01-21T04:23:54.070Z,98418.19
2023-01-21T04:26:21.512Z,98403.06
2023-01-21T04:28:49.015Z,98408.78
2023-01-21T04:31:16.631Z,98419.41
2023-01-21T04:33:44.215Z,98414.66
2023-01-21T04:36:11.727Z,98418.06
2023-01-21T04:38:39.399Z,98421.25
2023-01-21T04:41:06.945Z,98420.03
2023-01-21T04:43:34.474Z,98420.53
2023-01-21T04:46:02.121Z,98422.22
2023-01-21T04:48:29.702Z,98411.69
2023-01-21T04:50:57.225Z,98416.84
2023-01-21T04:53:24.950Z,98420.69
2023-01-21T04:55:52.849Z,98423.03
2023-01-21T04:58:21.167Z,98426.94
2023-01-21T05:00:48.744Z,98418.97
2023-01-21T05:03:16.563Z,98434.03
2023-01-21T05:05:44.052Z,98429.59
2023-01-21T05:08:11.620Z,98435.06
2023-01-21T05:10:39.324Z,98441.72
2023-01-21T05:13:06.844Z,98440.53
2023-01-21T05:15:34.332Z,98431.38
2023-01-21T05:18:01.878Z,98446.25
2023-01-21T05:20:29.484Z,98443.81
2023-01-21T05:22:58.026Z,98441.91
2023-01-21T05:25:25.424Z,98429.69
2023-01-21T05:27:54.804Z,98433.72
2023-01-21T05:30:22.420Z,98435.38
2023-01-21T05:32:54.326Z,98434.66
2023-01-21T05:35:23.381Z,98432.50
2023-01-21T05:37:51.074Z,98437.03
2023-01-21T05:40:19.414Z,98427.19
2023-01-21T05:42:47.444Z,98433.03
2023-01-21T05:45:15.298Z,98434.00
2023-01-21T05:47:42.964Z,98436.13
2023-01-21T05:50:11.209Z,98438.34
2023-01-21T05:52:39.103Z,98431.38
2023-01-21T05:55:06.913Z,98433.28
2023-01-21T05:57:34.870Z,98433.28
2023-01-21T06:00:02.332Z,98435.63
2023-01-21T06:02:32.361Z,98433.72
2023-01-21T06:04:59.914Z,98433.03
2023-01-21T06:07:27.367Z,98436.19
2023-01-21T06:09:54.887Z,98442.38
2023-01-21T06:12:24.663Z,98440.13
2023-01-21T06:14:52.391Z,98441.56
2023-01-21T06:17:19.886Z,98437.72
2023-01-21T06:19:47.482Z,98433.84
2023-01-21T06:22:16.598Z,98440.34
2023-01-21T06:24:44.850Z,98439.19
2023-01-21T06:27:12.731Z,98445.25
2023-01-21T06:29:40.248Z,98444.41
2023-01-21T06:32:07.948Z,98446.19
2023-01-21T06:34:35.585Z,98443.19
2023-01-21T06:37:03.074Z,98443.56
2023-01-21T06:39:30.564Z,98442.50
2023-01-21T06:41:58.021Z,98442.75
2023-01-21T06:44:25.586Z,98434.25
2023-01-21T06:47:00.658Z,98438.25
2023-01-21T06:49:28.814Z,98438.81
2023-01-21T06:51:56.634Z,98444.84
2023-01-21T06:54:24.231Z,98439.88
2023-01-21T06:56:51.743Z,98442.06
2023-01-21T06:59:19.361Z,98440.59
2023-01-21T07:01:46.850Z,98439.38
2023-01-21T07:04:14.409Z,98433.03
2023-01-21T07:06:41.903Z,98438.25
2023-01-21T07:09:09.589Z,98430.53
2023-01-21T07:11:37.128Z,98435.88
2023-01-21T07:14:04.661Z,98442.31
2023-01-21T07:16:32.128Z,98451.84
2023-01-21T07:18:59.654Z,98454.06
2023-01-21T07:21:27.160Z,98461.91
2023-01-21T07:23:55.701Z,98473.19
2023-01-21T07:26:23.596Z,98458.38
2023-01-21T07:28:51.186Z,98457.69
2023-01-21T07:31:18.716Z,98463.97
2023-01-21T07:33:46.329Z,98467.31
2023-01-21T07:36:13.792Z,98462.34
2023-01-21T07:38:41.464Z,98473.91
2023-01-21T07:41:08.940Z,98478.66
2023-01-21T07:43:36.480Z,98471.88
2023-01-21T07:46:03.943Z,98470.09
2023-01-21T07:48:31.872Z,98482.69
2023-01-21T07:51:00.143Z,98480.34
2023-01-21T07:53:27.682Z,98475.06
2023-01-21T07:55:55.171Z,98472.69
2023-01-21T07:58:22.664Z,98479.22
2023-01-21T08:00:50.174Z,98477.91
2023-01-21T08:03:20.194Z,98471.31
2023-01-21T08:05:47.802Z,98477.81
2023-01-21T08:08:15.263Z,98468.56
2023-01-21T08:10:42.810Z,98471.88
2023-01-21T08:13:10.463Z,98467.53
2023-01-21T08:15:38.056Z,98471.44
2023-01-21T08:18:05.565Z,98468.25
2023-01-21T08:20:33.623Z,98475.50
2023-01-21T08:23:01.505Z,98479.50
2023-01-21T08:25:29.010Z,98480.34
2023-01-21T08:27:59.192Z,98473.00
2023-01-21T08:30:26.840Z,98480.09
2023-01-21T08:32:54.300Z,98477.22
2023-01-21T08:35:21.973Z,98471.91
2023-01-21T08:37:49.953Z,98459.94
2023-01-21T08:40:17.557Z,98474.28
2023-01-21T08:42:45.015Z,98474.69
2023-01-21T08:45:15.327Z,98467.75
2023-01-21T08:47:42.984Z,98462.22
2023-01-21T08:50:11.103Z,98474.25
2023-01-21T08:52:39.200Z,98472.66
2023-01-21T08:55:07.057Z,98472.09
2023-01-21T08:57:34.629Z,98477.16
2023-01-21T09:00:02.170Z,98482.97
2023-01-21T09:02:29.771Z,98483.22
2023-01-21T09:04:57.255Z,98483.34
2023-01-21T09:07:24.784Z,98485.31
2023-01-21T09:09:52.239Z,98488.84
2023-01-21T09:12:19.809Z,98491.56
2023-01-21T09:14:47.303Z,98493.28
2023-01-21T09:17:14.855Z,98487.31
2023-01-21T09:19:42.295Z,98494.72
2023-01-21T09:22:09.867Z,98493.41
2023-01-21T09:24:37.430Z,98502.66
2023-01-21T09:27:07.438Z,98493.53
2023-01-21T09:29:35.210Z,98501.78
2023-01-21T09:32:03.259Z,98494.16
2023-01-21T09:34:31.983Z,98493.06
2023-01-21T09:37:00.493Z,98501.09
2023-01-21T09:39:27.933Z,98492.03
2023-01-21T09:41:58.211Z,98496.56
2023-01-21T09:44:35.096Z,98494.75
2023-01-21T09:47:21.533Z,98486.94
2023-01-21T09:49:54.421Z,98470.25
2023-01-21T09:52:36.613Z,98470.41
2023-01-21T09:55:06.553Z,98476.31
2023-01-21T09:58:09.263Z,98469.19
2023-01-21T10:01:14.863Z,98461.50
2023-01-21T10:03:53.280Z,98473.31
2023-01-21T10:06:29.660Z,98469.75
2023-01-21T10:09:12.012Z,98467.97
2023-01-21T10:11:50.575Z,98460.38
2023-01-21T10:15:04.367Z,98458.47
2023-01-21T10:18:01.484Z,98462.91
2023-01-21T10:20:34.254Z,98459.84
2023-01-21T10:23:15.056Z,98456.28
2023-01-21T10:25:43.105Z,98450.66
2023-01-21T10:28:18.562Z,98451.06
2023-01-21T10:30:50.704Z,98451.34
2023-01-21T10:33:31.254Z,98460.59
2023-01-21T10:36:21.351Z,98449.44
2023-01-21T10:38:55.081Z,98445.03
2023-01-21T10:41:25.411Z,98455.47
2023-01-21T10:44:17.604Z,98443.50
2023-01-21T10:46:57.004Z,98445.03
2023-01-21T10:54:22.759Z,98434.31
2023-01-21T10:57:05.188Z,98436.38
2023-01-21T10:59:36.148Z,98433.91
2023-01-21T11:02:10.138Z,98424.69
2023-01-21T11:04:41.054Z,98419.59
2023-01-21T11:07:12.625Z,98427.88
2023-01-21T11:09:46.740Z,98414.94
2023-01-21T11:12:21.682Z,98417.00
2023-01-21T11:14:55.693Z,98413.47
2023-01-21T11:17:38.169Z,98408.63
2023-01-21T11:20:28.046Z,98419.78
2023-01-21T11:22:55.613Z,98421.16
2023-01-21T11:25:28.341Z,98408.50
2023-01-21T11:27:55.885Z,98399.84
2023-01-21T11:30:49.625Z,98383.59
2023-01-21T11:33:27.290Z,98384.97
2023-01-21T11:35:55.991Z,98391.44
2023-01-21T11:38:25.066Z,98386.63
2023-01-21T11:41:04.584Z,98385.25
2023-01-21T11:43:35.094Z,98387.31
2023-01-21T11:46:21.070Z,98383.72
2023-01-21T11:48:48.846Z,98371.78
2023-01-21T11:51:18.061Z,98379.06
2023-01-21T11:53:46.913Z,98366.09
2023-01-21T11:56:16.731Z,98351.06
2023-01-21T11:58:44.364Z,98364.13
2023-01-21T12:01:22.182Z,98373.25
2023-01-21T12:03:53.932Z,98370.50
2023-01-21T12:06:26.432Z,98377.66
2023-01-21T12:08:58.433Z,98379.31
2023-01-21T12:11:29.587Z,98370.22
2023-01-21T12:14:24.607Z,98369.00
2023-01-21T12:16:52.109Z,98368.88
2023-01-21T12:19:51.635Z,98371.63
2023-01-21T12:22:31.183Z,98365.03
2023-01-21T12:25:29.263Z,98359.38
2023-01-21T12:28:38.858Z,98355.25
2023-01-21T12:31:15.477Z,98351.13
2023-01-21T12:34:06.162Z,98347.97
2023-01-21T12:36:43.271Z,98334.19
2023-01-21T12:39:30.079Z,98322.47
2023-01-21T12:42:03.624Z,98326.03
2023-01-21T12:44:42.899Z,98323.44
2023-01-21T12:47:20.401Z,98310.22
2023-01-21T12:50:09.524Z,98311.03
2023-01-21T12:53:09.488Z,98299.44
2023-01-21T12:56:04.718Z,98289.81
2023-01-21T12:58:40.929Z,98293.69
2023-01-21T13:01:14.479Z,98288.00
2023-01-21T13:03:48.345Z,98272.56
2023-01-21T13:06:29.724Z,98273.78
2023-01-21T13:09:57.771Z,98267.19
2023-01-21T13:12:29.742Z,98264.84
2023-01-21T13:15:02.077Z,98262.09
2023-01-21T13:17:34.116Z,98248.03
2023-01-21T13:20:13.165Z,98256.69
2023-01-21T13:22:46.904Z,98256.00
2023-01-21T13:25:26.869Z,98254.66
2023-01-21T13:28:20.413Z,98253.78
2023-01-21T13:31:06.552Z,98255.34
2023-01-21T13:34:02.880Z,98250.34
2023-01-21T13:37:21.332Z,98247.16
2023-01-21T13:39:54.647Z,98243.03
2023-01-21T13:42:59.344Z,98237.13
2023-01-21T13:45:35.633Z,98238.38
2023-01-21T13:48:12.146Z,98231.06
2023-01-21T13:50:58.372Z,98231.31
2023-01-21T13:53:38.836Z,98228.41
2023-01-21T13:56:56.360Z,98234.00
2023-01-21T13:59:31.685Z,98228.94
2023-01-21T14:02:25.178Z,98224.66
2023-01-21T14:05:07.475Z,98225.75
2023-01-21T14:07:40.864Z,98224.22
2023-01-21T14:10:18.363Z,98208.88
2023-01-21T14:13:16.704Z,98220.97
2023-01-21T14:15:47.188Z,98224.41
2023-01-21T14:18:40.929Z,98220.22
2023-01-21T14:21:22.096Z,98225.00
2023-01-21T14:24:34.491Z,98228.59
2023-01-21T14:27:46.345Z,98223.78
2023-01-21T14:30:23.504Z,98222.28
2023-01-21T14:33:15.165Z,98221.47
2023-01-21T14:35:48.743Z,98210.69
2023-01-21T14:38:34.983Z,98219.66
2023-01-21T14:41:11.493Z,98216.81
2023-01-21T14:43:40.614Z,98215.41
2023-01-21T14:46:34.244Z,98212.38
2023-01-21T14:49:12.198Z,98210.91
2023-01-21T14:51:50.252Z,98210.34
2023-01-21T14:54:26.994Z,98205.09
2023-01-21T14:57:04.158Z,98211.00
2023-01-21T14:59:41.813Z,98208.53
2023-01-21T15:02:29.957Z,98213.47
2023-01-21T15:05:00.267Z,98210.19
2023-01-21T15:07:48.834Z,98212.09
2023-01-21T15:10:25.971Z,98202.47
2023-01-21T15:13:00.413Z,98202.78
2023-01-21T15:15:35.098Z,98208.94
2023-01-21T15:18:23.714Z,98206.22
2023-01-21T15:21:00.689Z,98208.94
2023-01-21T15:23:31.226Z,98210.63
2023-01-21T15:26:05.348Z,98206.78
2023-01-21T15:28:40.497Z,98193.19
2023-01-21T15:31:11.309Z,98207.72
2023-01-21T15:33:46.526Z,98207.03
2023-01-21T15:36:31.376Z,98208.44
2023-01-21T15:39:14.171Z,98207.59
2023-01-21T15:42:00.718Z,98201.69
2023-01-21T15:44:42.618Z,98210.22
2023-01-21T15:47:28.629Z,98210.91
2023-01-21T15:50:29.938Z,98209.41
2023-01-21T15:53:03.332Z,98208.44
2023-01-21T15:55:49.139Z,98213.38
2023-01-21T15:58:22.709Z,98216.44
2023-01-21T16:01:25.863Z,98206.63
2023-01-21T16:04:27.090Z,98210.22
2023-01-21T16:07:15.504Z,98207.16
2023-01-21T16:10:01.846Z,98209.13
2023-01-21T16:12:49.631Z,98202.91
2023-01-21T16:15:26.213Z,98198.66
2023-01-21T16:18:05.654Z,98198.94
2023-01-21T16:20:34.004Z,98197.66
2023-01-21T16:23:06.051Z,98193.94
2023-01-21T16:25:33.803Z,98194.75
2023-01-21T16:28:01.275Z,98198.88
2023-01-21T16:30:31.192Z,98195.81
2023-01-21T16:33:16.432Z,98190.59
2023-01-21T16:35:53.135Z,98202.63
2023-01-21T16:38:31.989Z,98195.97
2023-01-21T16:41:08.499Z,98199.72
2023-01-21T16:43:49.548Z,98195.06
2023-01-21T16:46:19.693Z,98199.03
2023-01-21T16:48:52.584Z,98198.38
2023-01-21T16:51:23.820Z,98196.41
2023-01-21T16:54:20.114Z,98203.59
2023-01-21T16:56:55.193Z,98201.41
2023-01-21T16:59:44.725Z,98209.78
2023-01-21T17:02:33.518Z,98199.75
2023-01-21T17:05:05.297Z,98205.13
2023-01-21T17:07:38.050Z,98210.47
2023-01-21T17:10:07.231Z,98218.72
2023-01-21T17:12:36.484Z,98211.97
2023-01-21T17:15:16.609Z,98215.69
2023-01-21T17:17:44.644Z,98212.94
2023-01-21T17:21:10.853Z,98214.59
2023-01-21T17:23:38.304Z,98215.97
2023-01-21T17:26:16.712Z,98209.13
2023-01-21T17:29:03.321Z,98218.47
2023-01-21T17:31:35.351Z,98226.44
2023-01-21T17:34:07.628Z,98222.19
2023-01-21T17:36:38.326Z,98223.25
2023-01-21T17:39:07.697Z,98224.38
2023-01-21T17:41:38.016Z,98230.00
2023-01-21T17:44:16.050Z,98226.41
2023-01-21T17:46:48.938Z,98228.94
2023-01-21T17:49:26.519Z,98233.03
2023-01-21T17:51:55.548Z,98231.09
2023-01-21T17:54:29.477Z,98240.75
2023-01-21T17:56:59.061Z,98237.84
2023-01-21T17:59:34.486Z,98238.56
2023-01-21T18:02:04.594Z,98238.25
2023-01-21T18:04:32.165Z,98250.69
2023-01-21T18:06:59.821Z,98243.25
2023-01-21T18:09:28.595Z,98244.06
2023-01-21T18:11:58.175Z,98248.72
2023-01-21T18:14:26.933Z,98241.63
2023-01-21T18:16:54.978Z,98250.28
2023-01-21T18:19:32.441Z,98240.22
2023-01-21T18:22:02.567Z,98250.41
2023-01-21T18:24:30.166Z,98254.53
2023-01-21T18:27:00.265Z,98249.00
2023-01-21T18:29:30.455Z,98255.09
2023-01-21T18:31:58.981Z,98261.72
2023-01-21T18:34:26.531Z,98257.31
2023-01-21T18:36:56.284Z,98258.41
2023-01-21T18:39:24.399Z,98262.09
2023-01-21T18:41:51.872Z,98256.22
2023-01-21T18:44:19.421Z,98268.06
2023-01-21T18:46:47.997Z,98261.72
2023-01-21T18:49:17.526Z,98262.66
2023-01-21T18:51:45.883Z,98265.28
2023-01-21T18:54:14.706Z,98262.97
2023-01-21T18:56:43.037Z,98262.66
2023-01-21T18:59:15.596Z,98265.84
2023-01-21T19:01:43.998Z,98270.22
2023-01-21T19:04:15.800Z,98269.28
2023-01-21T19:06:43.906Z,98262.84
2023-01-21T19:09:29.660Z,98266.13
2023-01-21T19:11:57.153Z,98259.66
2023-01-21T19:14:24.540Z,98260.75
2023-01-21T19:16:52.116Z,98263.66
2023-01-21T19:19:20.013Z,98259.41
2023-01-21T19:21:47.654Z,98269.84
2023-01-21T19:24:15.109Z,98270.22
2023-01-21T19:26:42.875Z,98272.31
2023-01-21T19:29:15.517Z,98268.75
2023-01-21T19:31:43.141Z,98276.47
2023-01-21T19:34:10.690Z,98273.69
2023-01-21T19:36:39.994Z,98280.16
2023-01-21T19:39:15.902Z,98278.94
2023-01-21T19:41:43.688Z,98284.03
2023-01-21T19:44:11.091Z,98289.41
2023-01-21T19:46:38.869Z,98291.59
2023-01-21T19:49:17.247Z,98281.28
2023-01-21T19:51:44.853Z,98300.44
2023-01-21T19:54:12.345Z,98298.19
2023-01-21T19:56:39.843Z,98302.34
2023-01-21T19:59:07.496Z,98307.88
2023-01-21T20:01:35.102Z,98314.47
2023-01-21T20:04:02.659Z,98316.69
2023-01-21T20:06:37.290Z,98313.50
2023-01-21T20:09:05.444Z,98320.78
2023-01-21T20:11:33.955Z,98325.19
2023-01-21T20:14:01.823Z,98327.16
2023-01-21T20:16:31.300Z,98322.47
2023-01-21T20:19:02.228Z,98330.88
2023-01-21T20:21:29.803Z,98336.34
2023-01-21T20:23:57.305Z,98336.09
2023-01-21T20:26:27.410Z,98331.81
2023-01-21T20:28:55.000Z,98342.41
2023-01-21T20:31:22.643Z,98342.28
2023-01-21T20:33:50.172Z,98344.03
2023-01-21T20:36:23.927Z,98344.63
2023-01-21T20:38:52.679Z,98354.22
2023-01-21T20:41:20.310Z,98355.38
2023-01-21T20:43:47.918Z,98354.50
2023-01-21T20:46:25.912Z,98359.09
2023-01-21T20:48:53.656Z,98364.97
2023-01-21T20:51:21.466Z,98361.25
2023-01-21T20:53:49.116Z,98361.41
2023-01-21T20:56:27.081Z,98357.00
2023-01-21T20:58:54.666Z,98369.53
2023-01-21T21:01:24.906Z,98369.25
2023-01-21T21:03:53.264Z,98372.00
2023-01-21T21:06:23.406Z,98378.75
2023-01-21T21:08:51.678Z,98377.94
2023-01-21T21:11:19.345Z,98376.41
2023-01-21T21:13:49.475Z,98382.19
2023-01-21T21:16:34.102Z,98379.72
2023-01-21T21:19:01.664Z,98390.47
2023-01-21T21:21:29.064Z,98389.50
2023-01-21T21:23:56.696Z,98381.38
2023-01-21T21:26:26.735Z,98386.75
2023-01-21T21:28:55.143Z,98387.97
2023-01-21T21:31:23.845Z,98383.69
2023-01-21T21:33:51.859Z,98388.13
2023-01-21T21:36:21.850Z,98394.44
2023-01-21T21:38:50.117Z,98404.09
2023-01-21T21:41:41.124Z,98400.63
2023-01-21T21:44:09.444Z,98399.53
2023-01-21T21:46:56.057Z,98405.72
2023-01-21T21:49:24.101Z,98405.44
2023-01-21T21:51:51.861Z,98403.81
2023-01-21T21:54:19.847Z,98411.78
2023-01-21T21:56:48.008Z,98410.69
2023-01-21T21:59:15.921Z,98417.44
2023-01-21T22:01:44.560Z,98410.69
2023-01-21T22:04:12.660Z,98412.34
2023-01-21T22:06:40.492Z,98405.72
2023-01-21T22:09:08.516Z,98407.09
2023-01-21T22:11:36.034Z,98405.06
2023-01-21T22:14:04.225Z,98408.25
2023-01-21T22:16:32.988Z,98409.34
2023-01-21T22:19:01.605Z,98412.34
2023-01-21T22:21:32.900Z,98416.09
2023-01-21T22:24:02.897Z,98411.94
2023-01-21T22:26:30.631Z,98411.53
2023-01-21T22:28:58.504Z,98419.81
2023-01-21T22:31:29.583Z,98427.78
2023-01-21T22:33:58.469Z,98435.22
2023-01-21T22:36:28.515Z,98434.25
2023-01-21T22:38:56.162Z,98433.16
2023-01-21T22:41:24.937Z,98428.31
2023-01-21T22:43:53.287Z,98428.88
2023-01-21T22:46:24.269Z,98428.34
2023-01-21T22:48:53.498Z,98426.38
2023-01-21T22:51:23.257Z,98432.59
2023-01-21T22:53:52.175Z,98435.75
2023-01-21T22:56:23.606Z,98434.78
2023-01-21T22:58:59.939Z,98442.50
2023-01-21T23:01:31.685Z,98442.50
2023-01-21T23:04:00.363Z,98439.34
2023-01-21T23:06:28.736Z,98437.66
2023-01-21T23:08:56.297Z,98441.81
2023-01-21T23:11:23.925Z,98448.97
2023-01-21T23:13:53.394Z,98438.94
2023-01-21T23:16:21.763Z,98442.25
2023-01-21T23:18:49.724Z,98447.59
2023-01-21T23:21:20.316Z,98438.78
2023-01-21T23:23:48.596Z,98451.47
2023-01-21T23:26:18.483Z,98444.16
2023-01-21T23:28:46.540Z,98449.25
2023-01-21T23:31:16.469Z,98454.06
2023-01-21T23:33:44.164Z,98449.66
2023-01-21T23:36:13.743Z,98454.47
2023-01-21T23:38:42.084Z,98450.06
2023-01-21T23:41:12.460Z,98456.97
2023-01-21T23:43:40.852Z,98452.69
2023-01-21T23:46:12.147Z,98458.88
2023-01-21T23:48:39.963Z,98462.75
2023-01-21T23:51:11.116Z,98458.06
2023-01-21T23:53:38.651Z,98460.00
2023-01-21T23:56:09.944Z,98467.16
2023-01-21T23:58:37.424Z,98454.50
